Time;durP1;ratioP1;P1;durP2;ratioP2;P2;SDS_P1;SDS_P2;PMS_P1;PMS_P2;Temp;Humidity;BMP_temperature;BMP_pressure;BME280_temperature;BME280_humidity;BME280_pressure;Samples;Min_cycle;Max_cycle;Signal;HPM_P1;HPM_P2
2022/01/24 00:00:18;;;;;;;11.82;5.70;;;;;;;0.49;83.57;98106.19;2071961;28;20579;-59
2022/01/24 00:01:20;;;;;;;8.52;5.00;;;;;;;0.29;83.52;98075.34;2072253;28;20539;-59
2022/01/24 00:02:22;;;;;;;9.70;4.88;;;;;;;0.47;83.29;98100.19;2070662;28;20206;-59
2022/01/24 00:03:23;;;;;;;9.30;4.80;;;;;;;0.43;83.45;98097.63;2072118;28;20194;-59
2022/01/24 00:04:25;;;;;;;9.77;5.40;;;;;;;-0.02;83.37;98030.81;2071752;28;20198;-59
2022/01/24 00:05:27;;;;;;;9.50;5.90;;;;;;;0.30;83.98;98083.94;2071230;28;20287;-59
2022/01/24 00:06:30;;;;;;;11.82;6.03;;;;;;;0.34;84.00;98088.22;2075667;28;20198;-59
2022/01/24 00:07:32;;;;;;;9.18;5.22;;;;;;;0.35;83.82;98089.91;2075278;28;20200;-59
2022/01/24 00:08:34;;;;;;;14.38;6.55;;;;;;;0.36;83.70;98086.50;2072318;28;20197;-59
2022/01/24 00:09:37;;;;;;;12.13;6.18;;;;;;;-0.02;83.44;98020.50;2071066;28;20240;-59
2022/01/24 00:10:40;;;;;;;12.43;6.28;;;;;;;0.32;83.70;98084.78;2071077;28;20232;-59
2022/01/24 00:15:36;;;;;;;11.57;5.88;;;;;;;0.20;84.03;98080.56;2071776;28;20229;-59
2022/01/24 00:17:51;;;;;;;9.93;5.47;;;;;;;0.14;84.57;98072.84;2072256;28;20648;-59
2022/01/24 00:26:45;;;;;;;12.82;5.80;;;;;;;0.05;84.56;98058.25;2071971;28;20190;-59
2022/01/24 00:27:47;;;;;;;10.30;5.90;;;;;;;0.02;84.95;98055.72;2069656;28;20289;-59
2022/01/24 00:28:49;;;;;;;14.25;6.57;;;;;;;0.03;85.29;98057.41;2071962;28;20802;-59
2022/01/24 00:29:51;;;;;;;10.90;5.95;;;;;;;0.01;85.41;98053.13;2071353;28;20256;-59
2022/01/24 00:30:54;;;;;;;12.07;6.00;;;;;;;-0.18;85.30;98034.31;2071011;28;20198;-59
2022/01/24 00:31:56;;;;;;;11.10;5.70;;;;;;;-0.14;85.62;98057.47;2071575;28;20197;-59
2022/01/24 00:32:57;;;;;;;11.65;5.50;;;;;;;-0.14;85.52;98054.88;2072075;28;20194;-59
2022/01/24 00:33:59;;;;;;;9.40;5.60;;;;;;;-0.18;85.83;98050.59;2071648;28;20324;-59
2022/01/24 00:35:00;;;;;;;14.20;6.60;;;;;;;-0.53;85.72;98001.78;2071597;28;20233;-59
2022/01/24 00:36:02;;;;;;;13.07;5.90;;;;;;;-0.38;85.86;98032.66;2070733;28;20201;-59
2022/01/24 00:37:04;;;;;;;12.43;5.95;;;;;;;-0.28;86.09;98054.91;2072062;28;20201;-59
2022/01/24 00:38:05;;;;;;;11.30;6.55;;;;;;;-0.34;86.19;98046.38;2071943;28;20204;-58
2022/01/24 00:39:07;;;;;;;9.55;6.10;;;;;;;-0.40;86.16;98057.53;2072062;28;20201;-59
2022/01/24 00:40:09;;;;;;;10.60;5.88;;;;;;;-0.52;86.45;98035.25;2071620;28;20229;-59
2022/01/24 00:41:14;;;;;;;10.48;5.20;;;;;;;-0.47;86.25;98042.94;2072189;28;20194;-59
2022/01/24 00:43:32;;;;;;;8.95;5.47;;;;;;;-0.47;86.84;98064.44;2070151;28;20200;-58
2022/01/24 00:44:49;;;;;;;11.73;6.22;;;;;;;-0.72;86.89;98032.72;2070170;28;20287;-58
2022/01/24 00:46:57;;;;;;;9.85;5.55;;;;;;;-0.62;87.29;98060.13;2072023;28;20328;-59
2022/01/24 00:54:42;;;;;;;12.90;6.45;;;;;;;-0.57;87.21;98064.41;2072576;28;20558;-58
2022/01/24 00:55:24;;;;;;;9.38;5.57;;;;;;;-0.68;87.78;98054.16;2072435;28;20688;-58
2022/01/24 00:56:26;;;;;;;13.23;5.60;;;;;;;-0.66;87.74;98062.72;2072971;28;20209;-58
2022/01/24 00:57:27;;;;;;;8.07;5.25;;;;;;;-0.65;87.74;98060.16;2073654;28;20205;-58
2022/01/24 00:58:29;;;;;;;10.80;5.70;;;;;;;-0.65;87.53;98057.59;2073372;28;20213;-58
2022/01/24 00:59:30;;;;;;;10.40;5.38;;;;;;;-0.72;87.82;98055.88;2073169;28;20209;-59
2022/01/24 01:00:32;;;;;;;11.57;6.03;;;;;;;-0.80;88.35;98055.88;2073482;28;20190;-58
2022/01/24 01:01:34;;;;;;;13.48;5.47;;;;;;;-0.86;88.46;98045.59;2073565;28;20202;-58
2022/01/24 01:02:36;;;;;;;10.80;5.47;;;;;;;-0.79;88.11;98056.72;2073598;28;20198;-58
2022/01/24 01:03:37;;;;;;;9.88;5.97;;;;;;;-0.81;88.23;98051.56;2073517;28;20193;-58
2022/01/24 01:06:54;;;;;;;12.57;6.20;;;;;;;-0.84;88.45;98050.75;2073505;28;20203;-58
2022/01/24 01:18:35;;;;;;;10.05;5.53;;;;;;;-0.80;88.80;98048.16;2073293;28;20205;-58
2022/01/24 01:19:37;;;;;;;9.75;5.60;;;;;;;-0.80;88.47;98044.72;2071084;28;20741;-58
2022/01/24 01:22:06;;;;;;;10.00;5.25;;;;;;;-0.72;88.35;98049.88;2056333;28;20199;-58
2022/01/24 01:23:08;;;;;;;14.75;6.05;;;;;;;-0.73;88.31;98050.72;2072895;28;20206;-59
2022/01/24 01:24:10;;;;;;;13.77;6.95;;;;;;;-0.74;88.45;98051.59;2072384;28;20205;-58
2022/01/24 01:25:11;;;;;;;12.70;5.15;;;;;;;-0.80;88.53;98055.88;2071833;28;20225;-58
2022/01/24 01:27:02;;;;;;;10.57;5.57;;;;;;;-0.80;88.67;98055.03;2073385;28;20206;-59
2022/01/24 01:27:42;;;;;;;12.52;5.70;;;;;;;-0.84;88.60;98058.44;2068424;28;20220;-58
2022/01/24 01:28:48;;;;;;;13.27;5.97;;;;;;;-0.91;88.66;98057.56;2073075;28;20198;-58
2022/01/24 01:29:57;;;;;;;11.52;5.88;;;;;;;-1.90;89.19;97896.44;2072493;28;20221;-58
2022/01/24 01:31:04;;;;;;;12.35;6.40;;;;;;;-0.91;89.19;98061.88;2073179;28;20201;-58
2022/01/24 01:32:28;;;;;;;11.88;6.10;;;;;;;-1.00;89.57;98067.84;2072678;28;20197;-58
2022/01/24 01:34:53;;;;;;;10.77;6.78;;;;;;;-0.95;89.58;98068.72;2072880;28;20542;-58
2022/01/24 01:37:22;;;;;;;9.90;5.85;;;;;;;-1.01;89.44;98063.59;2072776;28;20205;-59
2022/01/24 01:39:53;;;;;;;12.10;6.60;;;;;;;-1.01;89.33;98058.44;2071692;28;20634;-58
2022/01/24 01:52:47;;;;;;;11.10;6.47;;;;;;;-1.04;89.77;98069.59;2073223;28;20205;-59
2022/01/24 01:54:13;;;;;;;11.07;7.00;;;;;;;-1.40;89.62;98016.41;2073171;28;20204;-59
2022/01/24 01:56:35;;;;;;;12.77;6.68;;;;;;;-0.98;89.46;98073.00;2072798;28;20556;-59
2022/01/24 01:57:37;;;;;;;13.23;7.63;;;;;;;-1.00;89.63;98068.75;2073136;28;20198;-59
2022/01/24 01:58:38;;;;;;;13.57;7.35;;;;;;;-1.32;89.86;98030.13;2073248;28;20209;-59
2022/01/24 01:59:40;;;;;;;10.30;6.70;;;;;;;-1.09;89.89;98062.72;2071657;28;20544;-59
2022/01/24 02:00:54;;;;;;;14.63;8.05;;;;;;;-1.42;89.91;98003.56;2072933;28;20194;-59
2022/01/24 02:01:57;;;;;;;12.57;7.55;;;;;;;-1.07;90.09;98061.88;2072392;28;20318;-59
2022/01/24 02:02:59;;;;;;;14.10;7.82;;;;;;;-1.23;89.98;98034.44;2071428;28;20197;-59
2022/01/24 02:04:03;;;;;;;15.73;8.20;;;;;;;-1.07;90.11;98063.59;2073049;28;20285;-59
2022/01/24 02:05:05;;;;;;;13.25;7.45;;;;;;;-1.09;90.10;98061.00;2072672;28;20225;-59
2022/01/24 02:06:07;;;;;;;14.65;7.65;;;;;;;-1.03;90.13;98066.16;2072718;28;20241;-59
2022/01/24 02:07:13;;;;;;;15.98;7.10;;;;;;;-1.10;89.77;98055.84;2072776;28;20292;-59
2022/01/24 02:08:16;;;;;;;15.55;6.63;;;;;;;-1.34;89.98;98018.13;2072560;28;20201;-59
2022/01/24 02:09:18;;;;;;;14.85;7.78;;;;;;;-1.03;89.74;98073.88;2072645;28;20633;-59
2022/01/24 02:10:22;;;;;;;14.13;6.90;;;;;;;-1.04;89.70;98071.28;2071723;28;20194;-59
2022/01/24 02:11:24;;;;;;;11.25;6.68;;;;;;;-1.27;90.08;98041.28;2072994;28;20209;-59
2022/01/24 02:12:27;;;;;;;15.68;7.75;;;;;;;-1.04;90.26;98076.44;2073016;28;20194;-59
2022/01/24 02:13:30;;;;;;;21.13;7.22;;;;;;;-0.98;89.96;98070.44;2072896;28;20220;-59
2022/01/24 02:14:36;;;;;;;12.68;6.10;;;;;;;-1.02;89.82;98070.44;2071783;28;20205;-59
2022/01/24 02:15:50;;;;;;;15.75;7.82;;;;;;;-1.03;89.98;98062.72;2071827;28;20193;-59
2022/01/24 02:16:58;;;;;;;15.63;7.40;;;;;;;-1.16;90.29;98056.69;2073047;28;20189;-59
2022/01/24 02:18:26;;;;;;;12.68;7.20;;;;;;;-1.07;90.21;98071.31;2072498;28;20201;-59
2022/01/24 02:19:51;;;;;;;16.50;7.60;;;;;;;-1.25;90.73;98049.00;2071909;28;20269;-59
2022/01/24 02:22:39;;;;;;;10.52;7.13;;;;;;;-1.25;89.75;98026.72;2072854;28;20636;-59
2022/01/24 02:24:40;;;;;;;12.45;7.30;;;;;;;-1.13;89.96;98069.56;2072130;28;20193;-59
2022/01/24 02:25:42;;;;;;;13.23;7.18;;;;;;;-1.11;90.17;98065.28;2072506;28;20197;-59
2022/01/24 02:26:44;;;;;;;19.58;8.25;;;;;;;-1.16;90.18;98061.00;2072596;28;20214;-59
2022/01/24 02:27:53;;;;;;;15.45;7.65;;;;;;;-1.19;90.08;98064.44;2072991;28;20208;-58
2022/01/24 02:29:03;;;;;;;16.25;7.50;;;;;;;-1.23;90.50;98070.44;2071998;28;20553;-58
2022/01/24 02:30:14;;;;;;;11.88;6.95;;;;;;;-1.23;90.64;98065.28;2071104;28;20221;-59
2022/01/24 02:31:38;;;;;;;11.25;6.88;;;;;;;-1.28;90.92;98066.97;2072617;28;20190;-59
2022/01/24 02:32:39;;;;;;;14.68;7.40;;;;;;;-1.27;91.17;98067.00;2072678;28;20220;-59
2022/01/24 02:33:44;;;;;;;14.30;7.47;;;;;;;-1.34;90.88;98043.84;2072127;28;20205;-58
2022/01/24 02:34:48;;;;;;;16.13;8.20;;;;;;;-1.34;91.23;98048.97;2072208;28;20885;-59
2022/01/24 02:35:51;;;;;;;19.50;8.65;;;;;;;-1.24;91.28;98058.41;2072912;28;20205;-59
2022/01/24 02:37:00;;;;;;;13.80;7.70;;;;;;;-1.57;91.37;98008.66;2073003;28;20715;-59
2022/01/24 02:38:07;;;;;;;14.48;7.70;;;;;;;-1.32;91.21;98047.28;2072702;28;20201;-58
2022/01/24 02:40:29;;;;;;;17.65;7.80;;;;;;;-1.32;91.90;98058.41;2072796;28;20591;-58
2022/01/24 02:49:25;;;;;;;16.65;7.95;;;;;;;-1.27;92.12;98059.28;2071883;28;20196;-58
2022/01/24 02:51:05;;;;;;;16.00;7.97;;;;;;;-1.25;92.50;98054.16;2072785;28;20209;-58
2022/01/24 02:52:09;;;;;;;17.75;8.60;;;;;;;-1.23;92.44;98057.56;2071703;28;20208;-58
2022/01/24 02:53:11;;;;;;;17.10;8.82;;;;;;;-1.88;92.69;97952.09;2072769;28;20212;-58
2022/01/24 02:54:27;;;;;;;16.05;8.40;;;;;;;-1.31;92.39;98052.41;2072330;28;20204;-59
2022/01/24 02:55:29;;;;;;;14.65;8.07;;;;;;;-1.27;92.78;98058.44;2071931;28;20197;-58
2022/01/24 02:56:30;;;;;;;13.05;7.93;;;;;;;-1.37;92.83;98037.00;2072627;28;20208;-58
2022/01/24 02:57:32;;;;;;;19.25;9.10;;;;;;;-1.38;92.88;98037.84;2071089;28;20209;-58
2022/01/24 02:58:34;;;;;;;17.35;9.02;;;;;;;-1.30;92.73;98040.41;2072564;28;20202;-58
2022/01/24 02:59:36;;;;;;;15.68;8.10;;;;;;;-1.25;92.82;98052.41;2070751;28;20612;-58
2022/01/24 03:00:39;;;;;;;13.25;8.60;;;;;;;-1.27;92.83;98048.16;2071347;28;20221;-58
2022/01/24 03:01:42;;;;;;;15.50;7.93;;;;;;;-1.47;93.14;98025.84;2072678;28;20255;-58
2022/01/24 03:02:44;;;;;;;15.68;8.85;;;;;;;-1.44;93.34;98041.25;2072508;28;20204;-58
2022/01/24 03:03:46;;;;;;;16.92;8.60;;;;;;;-1.64;93.42;97999.25;2072765;28;20284;-58
2022/01/24 03:04:47;;;;;;;15.40;8.23;;;;;;;-1.36;93.00;98045.56;2072259;28;20225;-58
2022/01/24 03:05:49;;;;;;;16.52;8.40;;;;;;;-1.62;93.01;98000.09;2072350;28;20277;-58
2022/01/24 03:06:51;;;;;;;16.23;8.25;;;;;;;-1.35;92.87;98039.53;2072375;28;20208;-58
2022/01/24 03:07:52;;;;;;;14.65;8.85;;;;;;;-1.61;93.13;98005.25;2072508;28;20566;-58
2022/01/24 03:08:53;;;;;;;16.48;8.80;;;;;;;-1.41;93.54;98035.28;2072758;28;20221;-58
2022/01/24 03:09:56;;;;;;;14.95;8.20;;;;;;;-1.47;93.40;98040.38;2072245;28;20234;-58
2022/01/24 03:10:59;;;;;;;18.02;8.32;;;;;;;-1.57;93.38;98021.50;2072371;28;20208;-58
2022/01/24 03:12:05;;;;;;;11.52;6.60;;;;;;;-1.52;92.55;98016.41;2071397;28;20317;-58
2022/01/24 03:14:10;;;;;;;17.77;8.40;;;;;;;-1.84;92.09;98006.91;2072302;28;20198;-58
2022/01/24 03:15:12;;;;;;;19.58;7.60;;;;;;;-1.77;92.29;98025.75;2072066;28;20225;-58
2022/01/24 03:16:13;;;;;;;13.15;7.43;;;;;;;-1.79;92.64;98023.19;2072475;28;20194;-58
2022/01/24 03:17:15;;;;;;;15.65;8.43;;;;;;;-1.76;92.74;98027.44;2072464;28;20193;-58
2022/01/24 03:18:17;;;;;;;13.30;7.53;;;;;;;-2.16;92.78;97968.28;2071846;28;20194;-58
2022/01/24 03:19:20;;;;;;;19.15;8.00;;;;;;;-1.81;93.06;98030.88;2068967;28;20201;-58
2022/01/24 03:20:21;;;;;;;16.15;7.63;;;;;;;-1.80;93.16;98022.31;2072385;28;20205;-58
2022/01/24 03:21:23;;;;;;;14.38;8.10;;;;;;;-1.80;92.95;98032.59;2072537;28;20224;-58
2022/01/24 03:22:24;;;;;;;12.50;7.28;;;;;;;-1.79;93.09;98024.03;2071021;28;20213;-58
2022/01/24 03:23:26;;;;;;;17.05;8.88;;;;;;;-1.77;93.36;98023.19;2072634;28;20197;-58
2022/01/24 03:24:28;;;;;;;14.60;8.23;;;;;;;-1.86;93.34;98014.59;2072041;28;20225;-58
2022/01/24 03:25:29;;;;;;;16.02;8.35;;;;;;;-1.83;93.29;98022.31;2072419;28;20205;-58
2022/01/24 03:26:31;;;;;;;18.98;8.57;;;;;;;-1.85;93.39;98021.44;2071714;28;20190;-58
2022/01/24 03:27:32;;;;;;;25.88;8.55;;;;;;;-2.00;93.04;97986.31;2071781;28;20214;-58
2022/01/24 03:28:34;;;;;;;14.48;7.95;;;;;;;-1.79;93.16;98015.47;2072669;28;20212;-58
2022/01/24 03:29:35;;;;;;;16.70;8.23;;;;;;;-1.74;92.93;98012.94;2071140;28;20233;-58
2022/01/24 03:30:38;;;;;;;16.48;8.25;;;;;;;-2.07;92.59;97960.63;2071471;28;20224;-58
2022/01/24 03:31:40;;;;;;;17.45;7.85;;;;;;;-1.86;92.55;98013.72;2069617;28;20201;-58
2022/01/24 03:32:41;;;;;;;14.93;8.30;;;;;;;-1.92;92.76;98012.03;2072552;28;20614;-58
2022/01/24 03:33:43;;;;;;;16.25;8.50;;;;;;;-1.94;93.23;98018.88;2072279;28;20194;-58
2022/01/24 03:34:45;;;;;;;12.68;7.70;;;;;;;-2.32;92.72;97964.81;2071926;28;20719;-58
2022/01/24 03:35:46;;;;;;;15.18;8.52;;;;;;;-1.93;93.06;98009.44;2067542;28;20205;-59
2022/01/24 03:36:48;;;;;;;14.18;8.35;;;;;;;-1.93;93.00;98019.72;2067425;28;20206;-58
2022/01/24 03:37:49;;;;;;;15.80;8.63;;;;;;;-1.95;93.08;98017.13;2072424;28;20204;-58
2022/01/24 03:38:51;;;;;;;14.60;8.10;;;;;;;-1.90;93.07;98015.44;2072427;28;20208;-58
2022/01/24 03:39:53;;;;;;;18.33;8.60;;;;;;;-1.88;93.15;98010.28;2071290;28;20720;-58
2022/01/24 03:40:54;;;;;;;15.82;7.90;;;;;;;-1.87;93.36;98012.03;2072518;28;20205;-58
2022/01/24 03:41:56;;;;;;;18.83;9.30;;;;;;;-1.90;93.46;98010.31;2072299;28;20687;-58
2022/01/24 03:42:57;;;;;;;14.57;8.20;;;;;;;-1.96;93.65;97994.91;2072452;28;20201;-58
2022/01/24 03:44:04;;;;;;;17.38;8.60;;;;;;;-1.85;93.59;98002.63;2072419;28;20201;-58
2022/01/24 03:45:09;;;;;;;17.33;9.50;;;;;;;-1.91;93.57;98011.16;2071974;28;20259;-58
2022/01/24 03:46:25;;;;;;;21.02;7.97;;;;;;;-1.88;93.57;98008.59;2071841;28;20244;-58
2022/01/24 03:48:54;;;;;;;21.45;8.48;;;;;;;-1.83;94.32;98006.91;2072410;28;20653;-58
2022/01/24 03:49:57;;;;;;;14.35;8.10;;;;;;;-1.82;94.39;98011.19;2071240;28;20225;-58
2022/01/24 03:50:58;;;;;;;12.93;7.78;;;;;;;-1.78;94.21;98019.78;2072377;28;20211;-58
2022/01/24 03:52:00;;;;;;;16.10;8.30;;;;;;;-2.02;93.66;97969.16;2071888;28;20197;-58
2022/01/24 03:53:03;;;;;;;17.65;9.30;;;;;;;-1.68;93.26;98013.78;2072328;28;20690;-58
2022/01/24 03:54:05;;;;;;;17.50;8.98;;;;;;;-1.69;93.08;98017.19;2072612;28;20655;-58
2022/01/24 03:55:07;;;;;;;15.02;7.88;;;;;;;-1.70;93.41;98019.78;2071840;28;20840;-58
2022/01/24 03:56:09;;;;;;;19.30;9.90;;;;;;;-1.94;93.84;97972.66;2072255;28;20551;-58
2022/01/24 03:57:12;;;;;;;18.90;9.25;;;;;;;-1.64;93.27;98012.94;2072311;28;20199;-58
2022/01/24 03:58:14;;;;;;;12.20;8.25;;;;;;;-1.71;93.48;98010.34;2072201;28;20201;-58
2022/01/24 03:59:15;;;;;;;14.55;7.80;;;;;;;-1.72;93.67;98013.78;2071813;28;20190;-58
2022/01/24 04:00:17;;;;;;;16.95;7.95;;;;;;;-1.86;93.76;97995.75;2070821;28;20196;-58
2022/01/24 04:01:19;;;;;;;14.32;7.65;;;;;;;-1.78;94.23;98014.63;2072209;28;20208;-58
2022/01/24 04:02:23;;;;;;;16.35;8.90;;;;;;;-1.80;94.37;98014.63;2072274;28;20283;-58
2022/01/24 04:03:26;;;;;;;16.02;8.80;;;;;;;-1.79;94.27;98012.91;2072468;28;20229;-59
2022/01/24 04:04:27;;;;;;;19.15;9.23;;;;;;;-1.87;94.50;98004.31;2071935;28;20208;-58
2022/01/24 04:05:29;;;;;;;21.63;8.70;;;;;;;-1.86;94.67;98003.44;2072174;28;20653;-58
2022/01/24 04:06:30;;;;;;;14.88;7.75;;;;;;;-1.70;94.15;98017.22;2071905;28;20430;-58
2022/01/24 04:07:33;;;;;;;14.90;8.57;;;;;;;-1.76;94.08;98012.03;2072140;28;20217;-58
2022/01/24 04:08:35;;;;;;;14.43;9.20;;;;;;;-1.89;94.13;97993.19;2070456;28;20206;-58
2022/01/24 04:09:39;;;;;;;19.00;8.75;;;;;;;-1.77;94.37;98010.34;2071056;28;20226;-58
2022/01/24 04:10:44;;;;;;;16.13;8.25;;;;;;;-2.02;94.31;97972.63;2071573;28;20208;-58
2022/01/24 04:11:50;;;;;;;15.82;8.93;;;;;;;-1.80;94.52;97998.38;2074529;28;20204;-59
2022/01/24 04:12:52;;;;;;;18.45;9.50;;;;;;;-1.81;94.39;97999.19;2074664;28;20196;-58
2022/01/24 04:14:10;;;;;;;15.77;8.70;;;;;;;-1.82;94.85;98007.78;2070386;28;20347;-58
2022/01/24 04:16:26;;;;;;;17.58;9.35;;;;;;;-1.89;94.70;98017.16;2071952;28;20603;-58
2022/01/24 04:17:38;;;;;;;15.52;9.15;;;;;;;-1.89;95.13;97999.19;2071737;28;20586;-59
2022/01/24 04:18:52;;;;;;;14.65;8.60;;;;;;;-1.88;94.43;98013.75;2070869;28;20208;-59
2022/01/24 04:21:33;;;;;;;18.48;8.45;;;;;;;-2.43;94.26;97939.06;2072094;28;20207;-59
2022/01/24 04:22:45;;;;;;;14.98;8.90;;;;;;;-2.06;94.06;98009.41;2071999;28;20215;-59
2022/01/24 04:23:54;;;;;;;14.25;8.20;;;;;;;-2.05;94.10;98007.69;2071977;28;20209;-59
2022/01/24 04:25:01;;;;;;;15.40;8.57;;;;;;;-2.13;94.21;97992.25;2071630;28;20233;-59
2022/01/24 04:26:02;;;;;;;16.92;9.35;;;;;;;-2.12;94.46;98005.94;2073505;28;20223;-59
2022/01/24 04:27:05;;;;;;;16.42;8.32;;;;;;;-2.10;94.44;97999.94;2076055;28;20200;-59
2022/01/24 04:28:06;;;;;;;19.17;9.48;;;;;;;-2.00;94.25;97998.28;2075368;28;20213;-60
2022/01/24 04:29:08;;;;;;;18.13;9.45;;;;;;;-2.32;92.80;97965.66;2073715;28;20205;-59
2022/01/24 04:30:11;;;;;;;15.20;7.88;;;;;;;-2.15;93.01;98005.94;2073330;28;20232;-59
2022/01/24 04:31:12;;;;;;;15.90;9.15;;;;;;;-2.10;92.93;98006.81;2073691;28;20222;-59
2022/01/24 04:32:14;;;;;;;16.17;9.63;;;;;;;-2.29;92.54;98011.03;2073745;28;20659;-59
2022/01/24 04:33:15;;;;;;;15.80;9.00;;;;;;;-2.28;92.55;98011.00;2073869;28;20533;-59
2022/01/24 04:34:17;;;;;;;17.63;9.18;;;;;;;-2.38;92.65;98001.56;2073443;28;20193;-59
2022/01/24 04:35:19;;;;;;;18.48;9.52;;;;;;;-2.62;92.95;97962.09;2073749;28;20680;-59
2022/01/24 04:36:21;;;;;;;17.58;9.15;;;;;;;-2.33;93.43;98015.28;2073856;28;20204;-59
2022/01/24 04:37:23;;;;;;;20.05;9.45;;;;;;;-2.37;93.72;98010.97;2074401;28;20212;-59
2022/01/24 04:38:25;;;;;;;19.50;10.60;;;;;;;-2.45;93.27;97995.53;2073793;28;20193;-59
2022/01/24 04:39:27;;;;;;;16.42;9.05;;;;;;;-2.42;93.53;97994.69;2073425;28;20629;-60
2022/01/24 04:40:29;;;;;;;17.90;9.02;;;;;;;-2.45;93.64;98004.94;2071942;28;20271;-59
2022/01/24 04:41:37;;;;;;;15.68;9.43;;;;;;;-2.31;93.42;98011.00;2073932;28;20201;-59
2022/01/24 04:42:46;;;;;;;14.00;8.35;;;;;;;-2.40;93.43;97993.00;2073833;28;20201;-60
2022/01/24 04:45:10;;;;;;;15.23;8.80;;;;;;;-2.41;94.00;98009.22;2073390;28;20233;-60
2022/01/24 04:46:31;;;;;;;14.73;8.52;;;;;;;-2.30;93.90;98010.13;2072796;28;20201;-60
2022/01/24 04:47:48;;;;;;;18.65;8.98;;;;;;;-2.38;94.57;97994.72;2073745;28;20605;-60
2022/01/24 04:50:27;;;;;;;17.10;9.00;;;;;;;-2.25;95.10;98005.06;2073099;28;20232;-60
2022/01/24 04:52:49;;;;;;;20.05;10.70;;;;;;;-2.33;94.84;97999.88;2073676;28;20200;-60
2022/01/24 04:54:39;;;;;;;20.15;9.38;;;;;;;-2.22;94.88;98011.03;2072781;28;20210;-60
2022/01/24 04:55:15;;;;;;;22.00;10.35;;;;;;;-2.15;95.18;98011.94;2067872;28;20233;-60
2022/01/24 04:56:17;;;;;;;21.30;9.43;;;;;;;-2.20;94.85;98017.03;2072870;28;20208;-60
2022/01/24 04:57:25;;;;;;;15.80;9.27;;;;;;;-2.18;94.71;98022.16;2073257;28;20237;-60
2022/01/24 04:58:26;;;;;;;13.98;8.02;;;;;;;-2.21;94.22;98020.47;2088762;28;20199;-60
2022/01/24 04:59:28;;;;;;;17.23;9.07;;;;;;;-2.29;94.10;98017.00;2088793;28;20195;-60
2022/01/24 05:00:30;;;;;;;13.77;8.60;;;;;;;-2.21;94.10;98025.59;2073706;28;20899;-60
2022/01/24 05:01:32;;;;;;;15.10;9.40;;;;;;;-2.26;94.66;98026.41;2072666;28;20196;-60
2022/01/24 05:02:33;;;;;;;16.30;8.27;;;;;;;-2.26;94.25;98031.56;2073438;28;20204;-60
2022/01/24 05:03:35;;;;;;;16.90;8.60;;;;;;;-2.39;94.43;98012.69;2073611;28;20581;-60
2022/01/24 05:04:36;;;;;;;19.88;10.10;;;;;;;-2.22;94.95;98021.28;2072217;28;20228;-60
2022/01/24 05:05:38;;;;;;;17.42;10.48;;;;;;;-2.32;94.55;98006.72;2073464;28;20753;-60
2022/01/24 05:06:40;;;;;;;17.45;8.98;;;;;;;-2.26;94.23;98022.13;2073290;28;20208;-60
2022/01/24 05:07:42;;;;;;;19.45;9.70;;;;;;;-2.17;94.05;98028.19;2072749;28;20208;-60
2022/01/24 05:08:43;;;;;;;14.57;8.73;;;;;;;-2.34;94.60;98007.56;2073264;28;20540;-60
2022/01/24 05:11:06;;;;;;;16.23;8.45;;;;;;;-2.51;94.46;97990.38;2073557;28;20635;-60
2022/01/24 05:12:20;;;;;;;15.90;8.65;;;;;;;-2.29;94.42;98022.13;2073483;28;20199;-60
2022/01/24 05:21:30;;;;;;;17.35;8.68;;;;;;;-2.22;93.01;98034.13;2072262;28;20206;-60
2022/01/24 05:23:25;;;;;;;14.93;8.75;;;;;;;-2.50;92.68;98025.44;2073274;28;20196;-60
2022/01/24 05:24:18;;;;;;;15.00;9.02;;;;;;;-2.65;93.21;98031.31;2072282;28;20200;-60
2022/01/24 05:25:19;;;;;;;16.52;9.20;;;;;;;-2.60;92.60;98036.50;2073446;28;20196;-60
2022/01/24 05:26:21;;;;;;;21.42;11.43;;;;;;;-2.97;92.41;98002.91;2074128;28;20204;-61
2022/01/24 05:27:23;;;;;;;19.52;10.93;;;;;;;-2.68;92.46;98033.88;2073550;28;20191;-60
2022/01/24 05:28:25;;;;;;;23.75;11.43;;;;;;;-2.72;92.46;98039.84;2073385;28;20210;-61
2022/01/24 05:29:27;;;;;;;21.73;11.10;;;;;;;-2.89;92.44;98015.78;2073019;28;20297;-60
2022/01/24 05:30:29;;;;;;;18.80;10.25;;;;;;;-2.80;92.57;98041.50;2073368;28;20214;-60
2022/01/24 05:31:30;;;;;;;21.75;11.40;;;;;;;-2.77;92.66;98044.06;2073463;28;20654;-60
2022/01/24 05:32:32;;;;;;;16.38;9.85;;;;;;;-2.75;92.81;98042.38;2073334;28;20579;-61
2022/01/24 05:33:33;;;;;;;19.35;9.95;;;;;;;-2.74;92.51;98043.22;2073390;28;20196;-60
2022/01/24 05:34:36;;;;;;;20.73;10.48;;;;;;;-2.77;92.88;98046.63;2076566;28;20226;-60
2022/01/24 05:35:38;;;;;;;18.60;10.10;;;;;;;-2.74;92.36;98044.13;2076423;28;20195;-60
2022/01/24 05:36:39;;;;;;;17.20;9.93;;;;;;;-2.82;92.68;98032.94;2073319;28;20210;-60
2022/01/24 05:37:41;;;;;;;17.23;9.40;;;;;;;-2.72;92.54;98034.72;2072393;28;20209;-60
2022/01/24 05:38:42;;;;;;;18.63;10.73;;;;;;;-2.76;93.14;98040.69;2070394;28;20193;-60
2022/01/24 05:39:44;;;;;;;16.65;10.68;;;;;;;-2.72;93.09;98044.97;2070487;28;20236;-60
2022/01/24 05:40:45;;;;;;;20.95;9.48;;;;;;;-2.67;92.82;98040.72;2073437;28;20202;-60
2022/01/24 05:41:47;;;;;;;19.98;10.63;;;;;;;-3.00;92.21;97995.19;2073279;28;20207;-60
2022/01/24 05:42:48;;;;;;;19.73;9.82;;;;;;;-2.99;92.37;97991.78;2072375;28;20207;-60
2022/01/24 05:43:50;;;;;;;17.50;10.27;;;;;;;-2.62;92.85;98043.34;2073408;28;20218;-61
2022/01/24 05:44:52;;;;;;;18.00;9.43;;;;;;;-3.20;93.21;97951.47;2072761;28;20277;-60
2022/01/24 05:45:54;;;;;;;20.95;10.13;;;;;;;-2.69;93.70;98031.31;2073346;28;20298;-60
2022/01/24 05:46:55;;;;;;;19.23;9.93;;;;;;;-2.66;93.96;98032.19;2076961;28;20670;-61
2022/01/24 05:47:57;;;;;;;21.70;10.95;;;;;;;-2.61;93.50;98040.78;2075647;28;20674;-60
2022/01/24 05:48:58;;;;;;;16.30;10.20;;;;;;;-2.73;93.84;98025.28;2073184;28;20231;-60
2022/01/24 05:50:01;;;;;;;15.27;9.23;;;;;;;-2.73;93.90;98034.69;2071804;28;20236;-60
2022/01/24 05:51:02;;;;;;;16.90;9.50;;;;;;;-2.81;93.34;98014.13;2073157;28;20207;-60
2022/01/24 05:52:09;;;;;;;16.55;9.70;;;;;;;-2.72;93.53;98032.16;2073166;28;20547;-60
2022/01/24 05:53:10;;;;;;;19.38;10.40;;;;;;;-2.76;93.87;98035.56;2072230;28;20214;-60
2022/01/24 05:54:12;;;;;;;17.80;11.02;;;;;;;-2.72;93.69;98033.88;2073258;28;20201;-60
2022/01/24 05:55:13;;;;;;;19.92;9.98;;;;;;;-2.68;93.95;98038.16;2072780;28;20234;-60
2022/01/24 05:56:15;;;;;;;21.92;11.00;;;;;;;-2.75;94.09;98041.53;2072658;28;20227;-60
2022/01/24 05:57:16;;;;;;;18.98;10.10;;;;;;;-2.73;93.98;98043.25;2073191;28;20207;-61
2022/01/24 05:58:18;;;;;;;22.50;10.77;;;;;;;-2.78;94.73;98043.22;2073157;28;20199;-60
2022/01/24 05:59:19;;;;;;;18.77;9.43;;;;;;;-2.57;95.33;98041.63;2072526;28;20631;-61
2022/01/24 06:00:22;;;;;;;17.40;9.93;;;;;;;-2.46;95.17;98041.72;2073174;28;20792;-60
2022/01/24 06:01:24;;;;;;;17.02;10.52;;;;;;;-2.56;95.00;98037.38;2071536;28;20208;-61
2022/01/24 06:02:26;;;;;;;17.20;10.25;;;;;;;-2.45;95.33;98040.84;2069061;28;20196;-60
2022/01/24 06:03:28;;;;;;;20.38;9.30;;;;;;;-2.27;95.32;98040.13;2069263;28;20193;-61
2022/01/24 06:04:30;;;;;;;17.67;10.27;;;;;;;-2.28;94.30;98033.25;2072001;28;20207;-61
2022/01/24 06:05:31;;;;;;;17.83;9.65;;;;;;;-2.34;93.82;98046.91;2072856;28;20207;-61
2022/01/24 06:06:32;;;;;;;19.27;10.60;;;;;;;-2.56;93.71;98030.53;2072703;28;20203;-60
2022/01/24 06:07:34;;;;;;;22.67;11.23;;;;;;;-2.59;93.94;98041.66;2069491;28;20223;-61
2022/01/24 06:08:36;;;;;;;25.13;11.15;;;;;;;-2.69;94.18;98044.97;2073054;28;20534;-61
2022/01/24 06:09:37;;;;;;;16.73;10.52;;;;;;;-3.34;94.11;97942.84;2072559;28;20227;-61
2022/01/24 06:10:39;;;;;;;20.58;11.30;;;;;;;-3.12;94.15;97983.13;2072767;28;20210;-60
2022/01/24 06:11:42;;;;;;;18.05;10.77;;;;;;;-2.75;94.21;98046.66;2071471;28;20208;-60
2022/01/24 06:12:44;;;;;;;24.52;9.98;;;;;;;-2.73;93.38;98053.50;2072598;28;20527;-61
2022/01/24 06:13:50;;;;;;;19.35;10.60;;;;;;;-2.95;93.47;98016.59;2072731;28;20697;-61
2022/01/24 06:14:52;;;;;;;16.67;9.70;;;;;;;-2.76;93.26;98035.56;2072262;28;20623;-61
2022/01/24 06:15:53;;;;;;;19.98;9.35;;;;;;;-2.71;93.40;98059.50;2072978;28;20202;-60
2022/01/24 06:16:55;;;;;;;25.40;11.10;;;;;;;-2.73;93.35;98056.06;2072960;28;20200;-60
2022/01/24 06:17:57;;;;;;;21.70;10.75;;;;;;;-2.71;93.72;98059.50;2072744;28;20232;-61
2022/01/24 06:18:58;;;;;;;18.33;10.40;;;;;;;-2.91;94.05;97999.53;2070236;28;20208;-60
2022/01/24 06:20:00;;;;;;;17.67;9.68;;;;;;;-2.65;93.79;98054.41;2072487;28;20228;-61
2022/01/24 06:21:01;;;;;;;21.65;10.00;;;;;;;-2.76;93.81;98042.34;2072926;28;20586;-61